Latest Coastal Weather Observations for Learmonth

IDW60701

Issued at 11:42 pm WST Saturday 29 April 2017 (issued every 10 minutes, with the page automatically refreshed every 10 minutes)

About coastal observations | Map of coastal stations | Coastal observations for WA | Marine services | Other Formats
Station Details ID: 005007 Name: LEARMONTH AIRPORT Lat: -22.24 Lon: 114.10 Height: 5.0 m
Data from the previous 72 hours. | See also: Recent months at Learmonth
Date/Time
WST
Temp
°C
Wind Pressure Rain since
9am
mm
Weather Cloud Vis
km
Sea
Height
m
Swell
Dir  Spd
kts
Gust
kts
hPa Trend Height
m
Period
s
Dir
28/04:30pm 30.4 N 6 7 1014.9 - 0.0 - - 10 - - - -
28/04:00pm 30.5 NNE 7 9 1014.9 - 0.0 - - 10 - - - -
28/03:30pm 32.0 NE 5 8 1014.9 - 0.0 - - 10 - - - -
28/03:00pm 31.9 NNE 6 8 1015.0 - 0.0 - - 10 - - - -
28/02:30pm 31.1 NE 7 9 1015.3 - 0.0 - - 10 - - - -
28/02:00pm 30.8 NE 9 11 1015.7 - 0.0 - - 10 - - - -
28/01:30pm 30.9 NNE 9 12 1016.0 - 0.0 - - 10 - - - -
28/01:00pm 30.4 NNE 7 11 1016.4 - 0.0 - - 10 - - - -
28/12:30pm 29.5 NNE 7 10 1016.9 - 0.0 - - 10 - - - -
28/12:00pm 29.0 NE 8 11 1017.3 - 0.0 - - 10 - - - -
28/11:30am 28.7 NE 8 11 1017.6 - 0.0 - - 10 - - - -
28/11:00am 28.5 NE 8 10 1017.9 - 0.0 - - 10 - - - -
28/10:30am 28.0 ENE 7 9 1018.2 - 0.0 - - 10 - - - -
28/10:00am 28.0 E 6 9 1018.3 - 0.0 - - 10 - - - -
28/09:30am 27.4 E 7 9 1018.3 - 0.0 - - 10 - - - -
28/09:00am 26.7 ESE 6 9 1018.2 - 0.0 - - 10 - - - -
28/08:30am 25.6 SSE 5 7 1018.2 - 0.0 - - 10 - - - -
28/08:00am 24.4 SSW 5 6 1018.1 - 0.0 - - 10 - - - -
28/07:30am 22.1 WSW 5 6 1017.9 - 0.0 - - 10 - - - -
28/07:00am 19.5 WSW 6 7 1017.6 - 0.0 - - 10 - - - -
28/06:30am 19.5 SW 7 7 1017.4 - 0.0 - - 10 - - - -
28/06:00am 20.0 WSW 6 7 1017.0 - 0.0 - - 10 - - - -
28/05:30am 20.2 WSW 6 6 1017.0 - 0.0 - - 10 - - - -
28/05:00am 19.9 SW 7 7 1016.9 - 0.0 - - 10 - - - -
28/04:30am 20.2 SW 6 7 1016.9 - 0.0 - - 10 - - - -
28/04:00am 20.5 SW 7 8 1016.7 - 0.0 - - 10 - - - -
28/03:30am 20.9 SW 7 8 1016.7 - 0.0 - - 10 - - - -
28/03:00am 21.4 WSW 6 7 1016.7 - 0.0 - - 10 - - - -
28/02:30am 20.5 SW 7 8 1016.7 - 0.0 - - 10 - - - -
28/02:00am 21.1 SW 7 8 1016.9 - 0.0 - - 10 - - - -
28/01:30am 22.0 SW 7 8 1016.9 - 0.0 - - 10 - - - -
28/01:00am 22.7 WSW 6 8 1017.1 - 0.0 - - 10 - - - -
28/12:30am 22.5 SW 6 7 1017.2 - 0.0 - - 10 - - - -
28/12:00am 23.7 WSW 7 8 1017.0 - 0.0 - - 10 - - - -
 
Date/Time
WST
Temp
°C
Wind Pressure Rain since
9am
mm
Weather Cloud Vis
km
Sea
Height
m
Swell
Dir  Spd
kts
Gust
kts
hPa Trend Height
m
Period
s
Dir
27/11:30pm 23.5 WSW 7 8 1017.4 - 0.0 - - 10 - - - -
27/11:00pm 23.8 SW 6 7 1017.6 - 0.0 - - 10 - - - -
27/10:30pm 24.0 SW 7 9 1017.6 - 0.0 - - 10 - - - -
27/10:00pm 25.0 SW 7 8 1017.6 - 0.0 - - 10 - - - -
27/09:30pm 25.2 SW 7 8 1017.4 - 0.0 - - 10 - - - -
27/09:00pm 26.0 SW 8 10 1017.3 - 0.0 - - 10 - - - -
27/08:30pm 26.3 WSW 9 11 1017.2 - 0.0 - - 10 - - - -
27/08:00pm 26.5 WSW 8 10 1017.0 - 0.0 - - 10 - - - -
27/07:30pm 26.9 WSW 9 11 1016.6 - 0.0 - - 10 - - - -
27/07:00pm 27.4 W 6 8 1016.2 - 0.0 - - 10 - - - -
27/06:30pm 28.1 W 10 13 1015.8 - 0.0 - - 10 - - - -
27/06:00pm 29.1 WSW 9 11 1015.5 - 0.0 - - - - - - -
27/05:30pm 30.7 SW 12 16 1015.4 - 0.0 - - 10 - - - -
27/05:00pm 31.0 N 6 7 1015.0 - 0.0 - - 10 - - - -
27/04:30pm 31.3 NNE 7 8 1015.0 - 0.0 - - 10 - - - -
27/04:00pm 31.5 ENE 7 8 1015.1 - 0.0 - - 10 - - - -
27/03:30pm 31.4 ENE 5 8 1015.1 - 0.0 - - 10 - - - -
27/03:00pm 31.3 ENE 7 10 1015.3 - 0.0 - - 10 - - - -
27/02:30pm 31.8 E 7 9 1015.4 - 0.0 - - 10 - - - -
27/02:00pm 30.8 ESE 5 7 1015.6 - 0.0 - - 10 - - - -
27/01:30pm 29.3 E 7 9 1016.1 - 0.0 - - 10 - - - -
27/01:00pm 30.2 E 9 11 1016.4 - 0.0 - - 10 - - - -
27/12:30pm 28.9 E 8 10 1016.8 - 0.0 - - 10 - - - -
27/12:00pm 28.8 ENE 8 10 1017.1 - 0.0 - - 10 - - - -
27/11:30am 27.4 E 9 11 1017.6 - 0.0 - - 10 - - - -
27/11:00am 27.7 ESE 9 11 1018.0 - 0.0 - - 10 - - - -
27/10:30am 28.3 ENE 9 12 1018.1 - 0.0 - - 10 - - - -
27/10:00am 27.8 ENE 10 13 1018.4 - 0.0 - - 10 - - - -
27/09:30am 27.8 ENE 8 10 1018.3 - 0.0 - - 10 - - - -
27/09:00am 27.3 NE 8 11 1018.1 - 0.0 - - 10 - - - -
27/08:30am 26.4 ENE 5 7 1018.1 - 0.0 - - 10 - - - -
27/08:00am 25.9 NE 5 7 1018.2 - 0.0 - - 10 - - - -
27/07:30am 24.6 SE 3 5 1018.1 - 0.0 - Partly cloudy 10 - - - -
27/07:00am 24.0 SW 4 8 1017.9 - 0.0 - Partly cloudy 10 - - - -
27/06:30am 23.6 SE 5 7 1017.3 - 0.0 - Partly cloudy 10 - - - -
27/06:00am 23.7 SSW 7 7 1016.9 - 0.0 - Partly cloudy 10 - - - -
27/05:30am 23.8 SSW 7 8 1016.6 - 0.0 - - 10 - - - -
27/05:00am 23.9 SW 6 7 1016.4 - 0.0 - - 10 - - - -
27/04:30am 24.4 SW 6 7 1016.4 - 0.0 - - 10 - - - -
27/04:00am 24.4 SW 6 7 1016.2 - 0.0 - - 10 - - - -
27/03:30am 24.2 SSW 6 7 1016.2 - 0.0 - Partly cloudy 10 - - - -
27/03:00am 24.3 WSW 5 5 1016.3 - 0.0 - Partly cloudy 10 - - - -
27/02:30am 24.5 SSE 3 4 1016.5 - 0.0 - Partly cloudy 10 - - - -
27/02:00am 24.5 S 5 7 1016.4 - 0.0 - - 10 - - - -
27/01:30am 24.5 S 6 6 1016.7 - 0.0 - Partly cloudy 10 - - - -
27/01:00am 25.1 SW 3 4 1016.8 - 0.0 - - 10 - - - -
27/12:30am 25.3 WSW 1 3 1017.0 - 0.0 - - 10 - - - -
27/12:00am 25.3 SW 4 5 1016.9 - 0.0 - - 10 - - - -

Other Formats:

Comma delimited format used in spreadsheet applications
http://www.bom.gov.au/fwo/IDW60701/IDW60701.94302.axf

JavaScript Object Notation format (JSON) in row-major order
http://www.bom.gov.au/fwo/IDW60701/IDW60701.94302.json